createdAt,value
2022-10-29T00:01:57.729Z,19.70
2022-10-29T00:04:24.153Z,14.82
2022-10-29T00:09:21.830Z,15.13
2022-10-29T00:11:48.228Z,20.13
2022-10-29T00:14:16.239Z,18.65
2022-10-29T00:16:42.602Z,17.38
2022-10-29T00:19:09.295Z,16.70
2022-10-29T00:21:35.698Z,17.35
2022-10-29T00:24:02.064Z,17.92
2022-10-29T00:26:29.985Z,15.02
2022-10-29T00:28:56.735Z,13.13
2022-10-29T00:31:27.152Z,18.30
2022-10-29T00:33:55.299Z,17.67
2022-10-29T00:36:24.672Z,17.35
2022-10-29T00:38:51.086Z,16.77
2022-10-29T00:41:21.138Z,15.82
2022-10-29T00:43:52.526Z,16.50
2022-10-29T00:46:27.858Z,19.38
2022-10-29T00:48:54.865Z,16.50
2022-10-29T00:51:21.540Z,20.77
2022-10-29T00:53:52.844Z,17.92
2022-10-29T00:56:19.300Z,21.30
2022-10-29T00:58:46.068Z,18.15
2022-10-29T01:01:12.788Z,17.02
2022-10-29T01:03:39.295Z,18.30
2022-10-29T01:06:06.293Z,17.13
2022-10-29T01:08:32.657Z,22.92
2022-10-29T01:11:09.322Z,16.60
2022-10-29T01:13:35.568Z,17.15
2022-10-29T01:16:08.273Z,20.20
2022-10-29T01:18:45.322Z,25.08
2022-10-29T01:21:30.676Z,20.75
2022-10-29T01:24:09.863Z,18.05
2022-10-29T01:26:48.342Z,20.25
2022-10-29T01:29:31.810Z,19.33
2022-10-29T01:32:07.987Z,16.42
2022-10-29T01:35:00.431Z,18.98
2022-10-29T01:40:28.115Z,22.35
2022-10-29T01:45:51.313Z,25.38
2022-10-29T01:48:20.557Z,17.55
2022-10-29T01:50:51.821Z,25.65
2022-10-29T01:53:19.140Z,23.57
2022-10-29T01:55:49.286Z,20.58
2022-10-29T02:01:04.132Z,19.33
2022-10-29T02:03:58.739Z,17.00
2022-10-29T02:06:52.508Z,22.42
2022-10-29T02:09:42.338Z,21.95
2022-10-29T02:12:17.764Z,16.15
2022-10-29T02:15:07.763Z,20.73
2022-10-29T02:17:34.583Z,16.08
2022-10-29T02:20:09.657Z,23.15
2022-10-29T02:22:36.075Z,16.55
2022-10-29T02:25:03.051Z,20.70
2022-10-29T02:27:29.441Z,19.20
2022-10-29T02:29:55.805Z,14.57
2022-10-29T02:32:22.243Z,20.50
2022-10-29T02:34:48.603Z,22.58
2022-10-29T02:37:15.018Z,21.08
2022-10-29T02:39:41.374Z,17.75
2022-10-29T02:42:07.735Z,25.17
2022-10-29T02:44:34.116Z,22.30
2022-10-29T02:47:00.478Z,17.10
2022-10-29T02:49:26.852Z,18.58
2022-10-29T02:51:53.211Z,22.52
2022-10-29T02:54:19.564Z,21.35
2022-10-29T02:56:45.956Z,21.75
2022-10-29T02:59:12.326Z,18.60
2022-10-29T03:01:38.967Z,18.33
2022-10-29T03:04:05.582Z,22.15
2022-10-29T03:06:32.117Z,18.75
2022-10-29T03:08:58.449Z,22.27
2022-10-29T03:11:24.811Z,19.92
2022-10-29T03:13:51.153Z,18.75
2022-10-29T03:16:17.514Z,16.75
2022-10-29T03:18:43.856Z,19.67
2022-10-29T03:21:10.232Z,17.13
2022-10-29T03:23:36.593Z,19.65
2022-10-29T03:26:03.186Z,23.08
2022-10-29T03:28:30.565Z,19.42
2022-10-29T03:30:57.829Z,20.30
2022-10-29T03:33:26.502Z,26.90
2022-10-29T03:35:59.789Z,17.73
2022-10-29T03:38:26.729Z,17.83
2022-10-29T03:40:53.123Z,10.80
2022-10-29T03:43:19.656Z,24.33
2022-10-29T03:45:56.822Z,17.23
2022-10-29T03:48:24.092Z,22.17
2022-10-29T03:51:09.990Z,19.05
2022-10-29T03:53:37.025Z,15.48
2022-10-29T03:56:04.056Z,20.48
2022-10-29T03:58:30.450Z,21.05
2022-10-29T04:01:04.890Z,19.33
2022-10-29T04:03:32.887Z,22.55
2022-10-29T04:06:01.031Z,20.48
2022-10-29T04:08:27.398Z,15.50
2022-10-29T04:10:53.922Z,19.13
2022-10-29T04:13:20.609Z,19.33
2022-10-29T04:15:47.067Z,27.98
2022-10-29T04:18:13.927Z,21.10
2022-10-29T04:21:03.103Z,21.95
2022-10-29T04:29:01.901Z,24.77
2022-10-29T04:31:28.259Z,20.23
2022-10-29T04:33:54.609Z,21.30
2022-10-29T04:36:21.073Z,23.75
2022-10-29T04:38:47.462Z,24.40
2022-10-29T04:41:13.821Z,19.42
2022-10-29T04:43:40.181Z,15.75
2022-10-29T04:46:06.573Z,15.60
2022-10-29T04:48:33.015Z,23.67
2022-10-29T04:50:59.465Z,14.18
2022-10-29T04:53:25.817Z,14.05
2022-10-29T04:55:52.274Z,17.02
2022-10-29T04:58:19.894Z,14.32
2022-10-29T05:00:46.609Z,21.50
2022-10-29T05:03:13.130Z,25.27
2022-10-29T05:05:39.923Z,20.55
2022-10-29T05:08:06.739Z,19.00
2022-10-29T05:10:35.130Z,17.75
2022-10-29T05:13:03.771Z,19.15
2022-10-29T05:15:30.673Z,15.95
2022-10-29T05:17:57.636Z,19.55
2022-10-29T05:20:25.123Z,16.30
2022-10-29T05:23:07.955Z,17.88
2022-10-29T05:25:36.243Z,19.88
2022-10-29T05:28:15.696Z,17.17
2022-10-29T05:30:43.803Z,17.35
2022-10-29T05:33:11.835Z,19.08
2022-10-29T05:35:38.283Z,14.82
2022-10-29T05:38:05.436Z,18.48
2022-10-29T05:40:32.070Z,22.63
2022-10-29T05:42:58.780Z,16.63
2022-10-29T05:45:25.382Z,21.73
2022-10-29T05:47:58.816Z,16.55
2022-10-29T05:50:25.822Z,18.95
2022-10-29T05:53:00.320Z,18.42
2022-10-29T05:55:27.235Z,16.88
2022-10-29T05:58:00.122Z,16.02
2022-10-29T06:00:28.228Z,16.20
2022-10-29T06:02:55.462Z,17.92
2022-10-29T06:05:22.411Z,19.33
2022-10-29T06:07:59.134Z,17.60
2022-10-29T06:10:27.531Z,21.25
2022-10-29T06:12:53.954Z,22.38
2022-10-29T06:15:20.568Z,24.10
2022-10-29T06:17:47.187Z,14.90
2022-10-29T06:20:15.349Z,15.60
2022-10-29T06:22:41.735Z,18.15
2022-10-29T06:25:08.638Z,21.10
2022-10-29T06:27:35.019Z,17.45
2022-10-29T06:30:01.366Z,19.52
2022-10-29T06:32:27.863Z,22.98
2022-10-29T06:34:54.210Z,20.83
2022-10-29T06:37:20.619Z,20.88
2022-10-29T06:39:47.005Z,17.25
2022-10-29T06:42:13.376Z,17.65
2022-10-29T06:44:39.741Z,18.83
2022-10-29T06:47:06.191Z,18.27
2022-10-29T06:49:32.545Z,24.17
2022-10-29T06:51:58.977Z,17.60
2022-10-29T06:54:25.405Z,22.55
2022-10-29T06:56:51.781Z,21.33
2022-10-29T06:59:18.140Z,20.02
2022-10-29T07:01:46.440Z,23.40
2022-10-29T07:04:12.885Z,16.98
2022-10-29T07:06:39.285Z,24.23
2022-10-29T07:09:05.712Z,26.73
2022-10-29T07:11:32.079Z,19.42
2022-10-29T07:13:58.515Z,25.17
2022-10-29T07:16:24.878Z,19.08
2022-10-29T07:18:51.304Z,26.13
2022-10-29T07:21:17.669Z,28.17
2022-10-29T07:23:44.031Z,25.85
2022-10-29T07:26:10.398Z,24.70
2022-10-29T07:28:36.758Z,22.83
2022-10-29T07:31:03.197Z,24.55
2022-10-29T07:33:30.860Z,23.10
2022-10-29T07:35:58.632Z,24.50
2022-10-29T07:38:25.753Z,23.77
2022-10-29T07:40:52.888Z,27.20
2022-10-29T07:43:20.390Z,28.15
2022-10-29T07:45:51.189Z,22.40
2022-10-29T07:48:19.332Z,23.88
2022-10-29T07:50:45.801Z,26.83
2022-10-29T07:53:12.187Z,25.90
2022-10-29T07:55:38.779Z,21.40
2022-10-29T07:58:07.691Z,28.20
2022-10-29T08:00:36.645Z,24.15
2022-10-29T08:03:03.064Z,25.42
2022-10-29T08:05:30.776Z,26.23
2022-10-29T08:07:57.901Z,26.73
2022-10-29T08:10:24.876Z,25.05
2022-10-29T08:12:52.430Z,24.42
2022-10-29T08:15:19.474Z,26.75
2022-10-29T08:17:46.358Z,26.30
2022-10-29T08:20:13.832Z,23.00
2022-10-29T08:22:40.202Z,29.45
2022-10-29T08:25:06.874Z,27.25
2022-10-29T08:27:33.278Z,20.27
2022-10-29T08:29:59.665Z,22.77
2022-10-29T08:32:26.104Z,27.10
2022-10-29T08:34:52.503Z,23.27
2022-10-29T08:37:18.931Z,27.33
2022-10-29T08:39:45.282Z,23.88
2022-10-29T08:42:49.967Z,26.77
2022-10-29T08:45:44.280Z,29.10
2022-10-29T08:48:17.673Z,24.42
2022-10-29T08:50:47.421Z,21.00
2022-10-29T08:53:24.077Z,22.70
2022-10-29T08:55:51.521Z,22.23
2022-10-29T08:58:48.100Z,21.88
2022-10-29T09:01:14.847Z,23.50
2022-10-29T09:03:41.431Z,19.13
2022-10-29T09:06:14.816Z,20.67
2022-10-29T09:09:09.972Z,25.00
2022-10-29T09:11:43.113Z,25.65
2022-10-29T09:14:31.335Z,17.08
2022-10-29T09:17:23.096Z,23.95
2022-10-29T09:19:55.463Z,28.25
2022-10-29T09:22:36.000Z,22.38
2022-10-29T09:25:28.047Z,17.98
2022-10-29T09:28:35.999Z,20.15
2022-10-29T09:31:02.251Z,24.23
2022-10-29T09:33:29.236Z,18.85
2022-10-29T09:35:57.727Z,23.52
2022-10-29T09:38:26.978Z,22.73
2022-10-29T09:40:56.853Z,21.20
2022-10-29T09:43:41.448Z,22.08
2022-10-29T09:46:23.175Z,22.38
2022-10-29T09:49:20.730Z,15.60
2022-10-29T09:52:00.150Z,24.20
2022-10-29T09:54:28.493Z,19.52
2022-10-29T09:56:56.198Z,19.33
2022-10-29T09:59:36.822Z,21.45
2022-10-29T10:02:07.204Z,24.15
2022-10-29T10:04:40.927Z,25.42
2022-10-29T10:07:12.557Z,25.23
2022-10-29T10:10:01.664Z,22.77
2022-10-29T10:12:37.070Z,21.65
2022-10-29T10:15:08.254Z,16.15
2022-10-29T10:17:58.176Z,23.97
2022-10-29T10:20:29.490Z,23.98
2022-10-29T10:22:56.349Z,16.73
2022-10-29T10:25:34.825Z,18.80
2022-10-29T10:28:24.141Z,24.23
2022-10-29T10:31:13.242Z,16.45
2022-10-29T10:33:53.001Z,19.10
2022-10-29T10:36:25.131Z,18.55
2022-10-29T10:38:59.039Z,17.38
2022-10-29T10:41:30.793Z,16.90
2022-10-29T10:44:00.399Z,12.05
2022-10-29T10:46:29.130Z,16.23
2022-10-29T10:48:59.233Z,15.85
2022-10-29T10:51:28.707Z,14.48
2022-10-29T10:53:55.269Z,14.15
2022-10-29T10:56:22.678Z,15.18
2022-10-29T10:59:05.191Z,25.73
2022-10-29T11:01:42.047Z,15.20
2022-10-29T11:04:14.262Z,15.65
2022-10-29T11:06:41.961Z,17.27
2022-10-29T11:09:19.652Z,15.98
2022-10-29T11:11:58.866Z,11.75
2022-10-29T11:14:33.571Z,11.32
2022-10-29T11:17:02.447Z,12.52
2022-10-29T11:19:36.673Z,20.25
2022-10-29T11:22:15.161Z,11.55
2022-10-29T11:24:53.783Z,12.80
2022-10-29T11:27:30.791Z,15.88
2022-10-29T11:30:05.227Z,16.98
2022-10-29T11:33:06.487Z,17.65
2022-10-29T11:35:38.182Z,13.70
2022-10-29T11:38:16.831Z,14.93
2022-10-29T11:41:04.812Z,16.67
2022-10-29T11:43:32.271Z,13.73
2022-10-29T11:46:13.727Z,14.07
2022-10-29T11:49:17.578Z,19.55
2022-10-29T11:51:58.138Z,12.77
2022-10-29T11:54:41.994Z,15.63
2022-10-29T11:57:20.301Z,13.48
2022-10-29T12:00:09.649Z,15.82
2022-10-29T12:03:24.124Z,13.25
2022-10-29T12:06:12.339Z,15.80
2022-10-29T12:08:48.744Z,13.75
2022-10-29T12:11:42.973Z,17.27
2022-10-29T12:14:25.124Z,14.52
2022-10-29T12:17:12.739Z,9.32
2022-10-29T12:20:11.498Z,12.45
2022-10-29T12:22:41.426Z,11.35
2022-10-29T12:25:18.111Z,11.48
2022-10-29T12:27:52.023Z,12.48
2022-10-29T12:30:19.041Z,12.55
2022-10-29T12:33:04.334Z,17.70
2022-10-29T12:35:48.932Z,11.50
2022-10-29T12:38:25.704Z,15.88
2022-10-29T12:40:58.676Z,12.27
2022-10-29T12:43:36.397Z,10.02
2022-10-29T12:46:21.865Z,11.10
2022-10-29T12:49:03.412Z,11.43
2022-10-29T12:51:43.116Z,8.02
2022-10-29T12:54:27.993Z,9.35
2022-10-29T12:56:56.460Z,14.43
2022-10-29T12:59:34.293Z,12.70
2022-10-29T13:02:30.493Z,11.55
2022-10-29T13:05:06.072Z,14.45
2022-10-29T13:07:36.531Z,11.25
2022-10-29T13:10:21.743Z,12.18
2022-10-29T13:13:15.992Z,14.43
2022-10-29T13:16:04.016Z,10.85
2022-10-29T13:18:41.794Z,11.23
2022-10-29T13:21:08.546Z,10.02
2022-10-29T13:23:37.232Z,13.85
2022-10-29T13:26:08.138Z,12.32
2022-10-29T13:28:37.530Z,12.17
2022-10-29T13:31:03.880Z,9.70
2022-10-29T13:33:30.126Z,11.10
2022-10-29T13:35:59.360Z,13.32
2022-10-29T13:38:58.133Z,15.23
2022-10-29T13:41:43.459Z,18.77
2022-10-29T13:44:11.649Z,9.98
2022-10-29T13:47:01.816Z,13.98
2022-10-29T13:49:41.162Z,9.15
2022-10-29T13:52:12.144Z,15.75
2022-10-29T13:54:51.689Z,14.33
2022-10-29T13:57:25.698Z,13.35
2022-10-29T13:59:58.211Z,10.55
2022-10-29T14:02:57.748Z,9.88
2022-10-29T14:05:38.224Z,11.27
2022-10-29T14:08:18.915Z,10.23
2022-10-29T14:10:47.822Z,14.55
2022-10-29T14:13:14.360Z,13.75
2022-10-29T14:16:00.796Z,9.38
2022-10-29T14:18:27.793Z,15.32
2022-10-29T14:20:58.705Z,13.10
2022-10-29T14:23:27.159Z,13.27
2022-10-29T14:25:55.755Z,9.27
2022-10-29T14:28:30.108Z,13.27
2022-10-29T14:31:16.551Z,9.70
2022-10-29T14:33:45.231Z,12.68
2022-10-29T14:36:26.206Z,11.57
2022-10-29T14:39:00.421Z,11.50
2022-10-29T14:41:28.839Z,15.38
2022-10-29T14:44:09.489Z,15.40
2022-10-29T14:46:37.530Z,13.20
2022-10-29T14:49:09.225Z,12.93
2022-10-29T14:51:41.632Z,14.02
2022-10-29T14:54:09.477Z,12.38
2022-10-29T14:56:38.474Z,13.43
2022-10-29T14:59:13.475Z,12.25
2022-10-29T15:01:46.361Z,10.20
2022-10-29T15:04:27.692Z,10.80
2022-10-29T15:06:56.996Z,11.20
2022-10-29T15:09:27.990Z,18.10
2022-10-29T15:12:08.628Z,12.68
2022-10-29T15:14:47.145Z,14.10
2022-10-29T15:17:25.793Z,11.95
2022-10-29T15:19:55.376Z,11.70
2022-10-29T15:22:26.735Z,11.38
2022-10-29T15:24:54.260Z,12.27
2022-10-29T15:27:22.826Z,11.05
2022-10-29T15:29:49.375Z,10.60
2022-10-29T15:32:17.344Z,10.18
2022-10-29T15:34:52.374Z,11.43
2022-10-29T15:37:18.674Z,15.15
2022-10-29T15:39:57.136Z,16.65
2022-10-29T15:42:26.823Z,16.70
2022-10-29T15:45:08.532Z,13.23
2022-10-29T15:47:40.042Z,14.95
2022-10-29T15:50:10.288Z,17.58
2022-10-29T15:52:41.746Z,14.27
2022-10-29T15:55:14.623Z,17.20
2022-10-29T15:57:41.514Z,14.43
2022-10-29T16:00:08.943Z,15.27
2022-10-29T16:02:35.378Z,13.60
2022-10-29T16:05:01.814Z,14.85
2022-10-29T16:07:28.190Z,16.63
2022-10-29T16:09:54.896Z,13.15
2022-10-29T16:12:25.939Z,18.40
2022-10-29T16:14:52.297Z,13.65
2022-10-29T16:17:20.908Z,12.77
2022-10-29T16:19:47.572Z,18.45
2022-10-29T16:22:16.592Z,25.05
2022-10-29T16:24:43.028Z,20.20
2022-10-29T16:27:18.482Z,20.23
2022-10-29T16:29:46.938Z,27.27
2022-10-29T16:32:17.716Z,22.08
2022-10-29T16:34:44.092Z,21.48
2022-10-29T16:37:15.547Z,29.35
2022-10-29T16:39:42.418Z,31.33
2022-10-29T16:42:27.614Z,25.65
2022-10-29T16:44:53.969Z,21.90
2022-10-29T16:47:20.414Z,16.90
2022-10-29T16:49:46.804Z,20.13
2022-10-29T16:52:16.267Z,15.40
2022-10-29T16:54:45.841Z,15.77
2022-10-29T16:57:12.554Z,15.43
2022-10-29T16:59:38.937Z,13.45
2022-10-29T17:02:05.331Z,18.67
2022-10-29T17:04:31.797Z,19.85
2022-10-29T17:06:58.235Z,18.75
2022-10-29T17:09:25.653Z,18.27
2022-10-29T17:11:52.128Z,22.92
2022-10-29T17:14:18.481Z,16.27
2022-10-29T17:16:44.843Z,18.75
2022-10-29T17:19:11.368Z,17.35
2022-10-29T17:21:37.782Z,19.98
2022-10-29T17:24:07.774Z,17.35
2022-10-29T17:26:34.419Z,16.85
2022-10-29T17:29:00.833Z,19.73
2022-10-29T17:31:27.259Z,22.10
2022-10-29T17:33:53.631Z,17.05
2022-10-29T17:36:20.063Z,17.83
2022-10-29T17:38:46.605Z,15.60
2022-10-29T17:41:13.035Z,18.73
2022-10-29T17:43:39.408Z,14.10
2022-10-29T17:46:05.801Z,12.65
2022-10-29T17:48:32.345Z,18.48
2022-10-29T17:51:01.144Z,20.50
2022-10-29T17:53:28.867Z,16.33
2022-10-29T17:55:59.330Z,16.58
2022-10-29T17:58:26.049Z,15.82
2022-10-29T18:00:52.693Z,20.08
2022-10-29T18:03:19.160Z,16.20
2022-10-29T18:05:45.705Z,14.93
2022-10-29T18:08:12.121Z,14.93
2022-10-29T18:10:39.144Z,18.67
2022-10-29T18:13:05.705Z,21.60
2022-10-29T18:15:32.220Z,63.13
2022-10-29T18:17:59.528Z,36.55
2022-10-29T18:20:26.075Z,59.22
2022-10-29T18:22:55.805Z,41.35
2022-10-29T18:25:22.587Z,79.85
2022-10-29T18:27:49.051Z,54.50
2022-10-29T18:30:16.051Z,66.78
2022-10-29T18:32:42.476Z,60.03
2022-10-29T18:35:09.403Z,38.67
2022-10-29T18:37:35.765Z,30.48
2022-10-29T18:40:02.114Z,33.60
2022-10-29T18:42:29.792Z,29.75
2022-10-29T18:44:56.142Z,24.15
2022-10-29T18:47:22.523Z,28.60
2022-10-29T18:49:48.904Z,22.70
2022-10-29T18:52:15.287Z,24.30
2022-10-29T18:54:41.694Z,16.17
2022-10-29T18:57:08.264Z,15.45
2022-10-29T18:59:34.685Z,13.88
2022-10-29T19:02:01.399Z,10.95
2022-10-29T19:04:27.952Z,18.10
2022-10-29T19:06:54.579Z,14.55
2022-10-29T19:09:21.002Z,12.98
2022-10-29T19:11:53.834Z,20.90
2022-10-29T19:14:23.343Z,21.35
2022-10-29T19:16:49.717Z,17.52
2022-10-29T19:19:18.451Z,13.93
2022-10-29T19:21:47.723Z,13.35
2022-10-29T19:24:14.818Z,9.95
2022-10-29T19:26:41.471Z,9.35
2022-10-29T19:29:08.520Z,9.80
2022-10-29T19:31:36.003Z,16.38
2022-10-29T19:34:05.900Z,12.68
2022-10-29T19:36:34.342Z,9.93
2022-10-29T19:39:00.931Z,8.68
2022-10-29T19:41:27.506Z,10.38
2022-10-29T19:43:53.966Z,10.70
2022-10-29T19:46:24.460Z,9.88
2022-10-29T19:48:52.571Z,13.55
2022-10-29T19:51:19.295Z,12.77
2022-10-29T19:53:46.549Z,13.35
2022-10-29T19:56:14.648Z,11.35
2022-10-29T19:58:41.295Z,9.80
2022-10-29T20:01:10.603Z,14.00
2022-10-29T20:03:37.080Z,12.18
2022-10-29T20:06:03.824Z,15.00
2022-10-29T20:08:30.230Z,15.27
2022-10-29T20:10:57.963Z,14.00
2022-10-29T20:13:24.988Z,15.85
2022-10-29T20:15:51.968Z,10.25
2022-10-29T20:18:18.578Z,14.93
2022-10-29T20:20:45.395Z,12.82
2022-10-29T20:23:12.063Z,15.18
2022-10-29T20:25:38.422Z,19.30
2022-10-29T20:28:04.882Z,13.75
2022-10-29T20:30:31.246Z,12.68
2022-10-29T20:32:57.976Z,15.52
2022-10-29T20:35:24.562Z,13.60
2022-10-29T20:37:50.943Z,14.85
2022-10-29T20:40:17.388Z,15.13
2022-10-29T20:42:43.784Z,16.15
2022-10-29T20:45:10.274Z,9.90
2022-10-29T20:47:36.639Z,10.48
2022-10-29T20:50:03.034Z,9.27
2022-10-29T20:52:30.308Z,17.95
2022-10-29T20:54:56.696Z,22.35
2022-10-29T20:57:23.061Z,11.98
2022-10-29T20:59:49.417Z,11.38
2022-10-29T21:02:15.919Z,11.40
2022-10-29T21:04:42.372Z,13.98
2022-10-29T21:07:08.776Z,14.40
2022-10-29T21:09:35.163Z,13.90
2022-10-29T21:12:01.533Z,13.50
2022-10-29T21:14:29.522Z,18.23
2022-10-29T21:16:55.892Z,15.70
2022-10-29T21:19:22.857Z,18.52
2022-10-29T21:21:49.196Z,15.40
2022-10-29T21:24:16.474Z,9.85
2022-10-29T21:26:42.826Z,13.52
2022-10-29T21:29:09.187Z,11.73
2022-10-29T21:31:35.633Z,23.10
2022-10-29T21:34:01.989Z,14.57
2022-10-29T21:36:28.339Z,14.38
2022-10-29T21:38:54.703Z,15.80
2022-10-29T21:41:21.139Z,15.80
2022-10-29T21:43:47.599Z,13.63
2022-10-29T21:46:14.008Z,13.77
2022-10-29T21:48:40.473Z,17.08
2022-10-29T21:51:10.178Z,18.83
2022-10-29T21:53:36.642Z,14.20
2022-10-29T21:56:04.958Z,14.50
2022-10-29T21:58:31.618Z,15.27
2022-10-29T22:01:03.413Z,14.73
2022-10-29T22:03:31.541Z,13.40
2022-10-29T22:06:22.141Z,24.05
2022-10-29T22:08:53.347Z,17.27
2022-10-29T22:11:19.703Z,14.40
2022-10-29T22:13:46.131Z,12.02
2022-10-29T22:16:12.836Z,17.02
2022-10-29T22:18:39.979Z,18.77
2022-10-29T22:21:06.630Z,10.15
2022-10-29T22:23:33.333Z,14.02
2022-10-29T22:25:59.730Z,14.85
2022-10-29T22:28:26.096Z,11.60
2022-10-29T22:31:00.196Z,14.93
2022-10-29T22:33:27.325Z,16.10
2022-10-29T22:35:53.717Z,18.05
2022-10-29T22:38:20.165Z,14.30
2022-10-29T22:40:46.518Z,14.98
2022-10-29T22:43:12.999Z,11.30
2022-10-29T22:45:39.409Z,19.98
2022-10-29T22:48:06.006Z,19.98
2022-10-29T22:50:32.368Z,14.40
2022-10-29T22:52:59.095Z,16.98
2022-10-29T22:55:25.645Z,15.55
2022-10-29T22:57:52.001Z,17.30
2022-10-29T23:00:18.383Z,15.93
2022-10-29T23:02:44.796Z,15.30
2022-10-29T23:05:11.175Z,11.05
2022-10-29T23:07:37.528Z,20.33
2022-10-29T23:10:04.106Z,13.25
2022-10-29T23:12:30.497Z,14.73
2022-10-29T23:14:56.856Z,18.75
2022-10-29T23:17:23.225Z,20.92
2022-10-29T23:19:49.570Z,16.60
2022-10-29T23:24:47.179Z,11.10
2022-10-29T23:27:13.535Z,16.67
2022-10-29T23:29:39.869Z,20.77
2022-10-29T23:32:06.242Z,13.95
2022-10-29T23:34:32.625Z,18.77
2022-10-29T23:37:00.415Z,13.20
2022-10-29T23:39:28.495Z,12.48
2022-10-29T23:41:54.845Z,14.30
2022-10-29T23:44:21.177Z,14.65
2022-10-29T23:46:47.535Z,10.38
2022-10-29T23:49:13.875Z,19.30
2022-10-29T23:51:40.248Z,15.35
2022-10-29T23:54:06.603Z,11.82
2022-10-29T23:56:33.023Z,21.52
2022-10-29T23:58:59.370Z,12.32
